createdAt,value
2023-05-07T00:02:10.169Z,12.15
2023-05-07T00:04:57.408Z,12.35
2023-05-07T00:07:46.554Z,13.02
2023-05-07T00:10:33.693Z,12.38
2023-05-07T00:13:20.749Z,13.80
2023-05-07T00:16:08.008Z,16.00
2023-05-07T00:18:55.511Z,12.05
2023-05-07T00:21:42.780Z,12.40
2023-05-07T00:24:31.206Z,14.05
2023-05-07T00:27:18.552Z,15.30
2023-05-07T00:30:05.920Z,15.38
2023-05-07T00:32:53.251Z,12.40
2023-05-07T00:35:40.440Z,11.30
2023-05-07T00:38:27.687Z,13.80
2023-05-07T00:41:16.302Z,12.05
2023-05-07T00:44:04.248Z,12.40
2023-05-07T00:46:51.685Z,12.80
2023-05-07T00:49:42.326Z,13.85
2023-05-07T00:52:29.929Z,15.38
2023-05-07T00:55:17.323Z,12.70
2023-05-07T00:58:05.858Z,12.13
2023-05-07T01:00:53.483Z,11.70
2023-05-07T01:03:40.970Z,12.35
2023-05-07T01:06:29.301Z,14.75
2023-05-07T01:09:17.231Z,14.55
2023-05-07T01:12:05.381Z,13.55
2023-05-07T01:14:54.575Z,13.00
2023-05-07T01:17:43.719Z,15.18
2023-05-07T01:20:44.835Z,13.87
2023-05-07T01:23:33.425Z,13.85
2023-05-07T01:26:21.630Z,15.93
2023-05-07T01:29:08.703Z,15.02
2023-05-07T01:31:58.017Z,18.75
2023-05-07T01:34:47.507Z,11.90
2023-05-07T01:37:35.158Z,16.50
2023-05-07T01:40:24.748Z,15.13
2023-05-07T01:43:13.388Z,14.43
2023-05-07T01:46:02.177Z,11.65
2023-05-07T01:48:49.557Z,12.00
2023-05-07T01:51:37.719Z,13.93
2023-05-07T01:54:29.813Z,11.43
2023-05-07T02:00:07.838Z,14.13
2023-05-07T02:03:02.991Z,10.95
2023-05-07T02:06:00.278Z,12.88
2023-05-07T02:08:57.951Z,13.30
2023-05-07T02:11:45.379Z,14.38
2023-05-07T02:14:35.414Z,15.82
2023-05-07T02:17:22.772Z,13.98
2023-05-07T02:20:14.635Z,14.45
2023-05-07T02:23:02.942Z,13.43
2023-05-07T02:25:51.429Z,16.75
2023-05-07T02:28:39.088Z,13.23
2023-05-07T02:31:28.481Z,13.93
2023-05-07T02:34:15.825Z,13.85
2023-05-07T02:37:03.440Z,11.73
2023-05-07T02:39:50.361Z,16.02
2023-05-07T02:42:37.799Z,13.23
2023-05-07T02:45:24.929Z,15.38
2023-05-07T02:48:16.218Z,13.73
2023-05-07T02:51:04.881Z,13.65
2023-05-07T02:53:52.760Z,13.30
2023-05-07T02:56:40.068Z,14.10
2023-05-07T02:59:28.092Z,15.15
2023-05-07T03:02:15.075Z,13.60
2023-05-07T03:05:03.294Z,15.65
2023-05-07T03:07:50.245Z,15.55
2023-05-07T03:10:37.960Z,15.50
2023-05-07T03:13:25.273Z,13.98
2023-05-07T03:16:13.733Z,12.98
2023-05-07T03:19:01.390Z,14.73
2023-05-07T03:21:52.175Z,11.65
2023-05-07T03:24:39.186Z,13.68
2023-05-07T03:27:26.272Z,11.50
2023-05-07T03:30:15.131Z,13.63
2023-05-07T03:33:02.382Z,11.52
2023-05-07T03:35:49.405Z,10.00
2023-05-07T03:38:42.307Z,13.48
2023-05-07T03:41:30.789Z,15.13
2023-05-07T03:44:17.842Z,13.20
2023-05-07T03:47:06.589Z,13.00
2023-05-07T03:49:55.054Z,12.52
2023-05-07T03:52:45.629Z,11.68
2023-05-07T03:55:35.322Z,11.93
2023-05-07T03:58:22.586Z,11.32
2023-05-07T04:01:10.073Z,10.35
2023-05-07T04:03:57.652Z,12.25
2023-05-07T04:06:45.853Z,11.15
2023-05-07T04:09:33.649Z,12.25
2023-05-07T04:12:22.247Z,16.52
2023-05-07T04:15:10.317Z,13.07
2023-05-07T04:17:57.663Z,14.52
2023-05-07T04:20:46.233Z,13.05
2023-05-07T04:23:35.234Z,10.57
2023-05-07T04:26:25.473Z,11.35
2023-05-07T04:29:14.229Z,9.40
2023-05-07T04:32:01.881Z,13.80
2023-05-07T04:34:49.356Z,13.35
2023-05-07T04:37:37.141Z,13.75
2023-05-07T04:40:25.305Z,12.10
2023-05-07T04:43:12.716Z,12.95
2023-05-07T04:48:55.275Z,15.02
2023-05-07T04:51:45.051Z,11.50
2023-05-07T04:54:33.986Z,12.90
2023-05-07T04:57:20.801Z,14.20
2023-05-07T05:00:11.227Z,12.88
2023-05-07T05:03:01.832Z,11.07
2023-05-07T05:05:52.806Z,12.98
2023-05-07T05:08:41.759Z,10.35
2023-05-07T05:11:30.549Z,9.38
2023-05-07T05:14:17.372Z,13.52
2023-05-07T05:17:04.565Z,10.88
2023-05-07T05:19:53.203Z,9.00
2023-05-07T05:22:40.464Z,10.77
2023-05-07T05:25:29.639Z,12.80
2023-05-07T05:28:18.159Z,9.10
2023-05-07T05:31:05.297Z,11.05
2023-05-07T05:33:56.571Z,7.70
2023-05-07T05:36:46.150Z,7.35
2023-05-07T05:39:34.758Z,7.50
2023-05-07T05:42:22.747Z,8.25
2023-05-07T05:45:11.221Z,8.98
2023-05-07T05:48:00.201Z,12.77
2023-05-07T05:50:47.877Z,10.85
2023-05-07T05:53:39.203Z,7.47
2023-05-07T05:56:26.864Z,10.27
2023-05-07T05:59:14.364Z,7.15
2023-05-07T06:02:02.038Z,7.97
2023-05-07T06:04:50.199Z,8.18
2023-05-07T06:07:40.381Z,5.32
2023-05-07T06:10:29.302Z,9.68
2023-05-07T06:13:16.466Z,7.55
2023-05-07T06:16:04.325Z,5.38
2023-05-07T06:18:51.215Z,8.82
2023-05-07T06:21:38.451Z,7.95
2023-05-07T06:24:26.280Z,10.48
2023-05-07T06:27:15.879Z,7.93
2023-05-07T06:30:04.394Z,9.00
2023-05-07T06:32:51.962Z,7.88
2023-05-07T06:35:40.300Z,8.77
2023-05-07T06:38:27.386Z,6.63
2023-05-07T06:41:15.167Z,7.03
2023-05-07T06:44:04.371Z,4.65
2023-05-07T06:46:57.525Z,5.53
2023-05-07T06:49:44.986Z,4.57
2023-05-07T06:52:36.703Z,6.20
2023-05-07T06:55:26.884Z,3.97
2023-05-07T06:58:15.392Z,4.38
2023-05-07T07:01:04.226Z,5.60
2023-05-07T07:03:52.983Z,5.50
2023-05-07T07:06:41.992Z,6.80
2023-05-07T07:09:31.785Z,5.72
2023-05-07T07:12:21.356Z,7.07
2023-05-07T07:15:09.514Z,10.13
2023-05-07T07:17:57.800Z,6.50
2023-05-07T07:20:46.432Z,5.55
2023-05-07T07:23:34.535Z,6.80
2023-05-07T07:26:22.489Z,8.45
2023-05-07T07:29:10.148Z,5.63
2023-05-07T07:31:57.881Z,5.80
2023-05-07T07:34:46.781Z,5.10
2023-05-07T07:37:34.557Z,4.95
2023-05-07T07:40:22.264Z,4.25
2023-05-07T07:43:09.671Z,4.78
2023-05-07T07:45:57.542Z,7.25
2023-05-07T07:48:45.511Z,5.35
2023-05-07T07:51:34.842Z,5.13
2023-05-07T07:54:21.966Z,7.05
2023-05-07T07:57:09.573Z,5.45
2023-05-07T07:59:58.320Z,5.28
2023-05-07T08:02:45.300Z,3.30
2023-05-07T08:05:40.866Z,3.88
2023-05-07T08:08:29.698Z,3.88
2023-05-07T08:11:17.271Z,3.42
2023-05-07T08:14:04.810Z,4.80
2023-05-07T08:16:52.354Z,6.47
2023-05-07T08:19:39.385Z,5.13
2023-05-07T08:22:29.501Z,3.53
2023-05-07T08:25:18.155Z,4.50
2023-05-07T08:28:06.309Z,3.53
2023-05-07T08:30:54.012Z,4.22
2023-05-07T08:33:41.425Z,3.88
2023-05-07T08:36:29.688Z,5.32
2023-05-07T08:39:18.599Z,4.88
2023-05-07T08:42:12.032Z,4.18
2023-05-07T08:45:03.289Z,4.15
2023-05-07T08:47:54.226Z,7.57
2023-05-07T08:50:43.492Z,4.32
2023-05-07T08:53:32.259Z,2.90
2023-05-07T08:56:22.444Z,4.63
2023-05-07T08:59:13.191Z,3.55
2023-05-07T09:02:01.071Z,3.83
2023-05-07T09:04:48.400Z,3.33
2023-05-07T09:07:35.705Z,5.00
2023-05-07T09:10:26.017Z,2.70
2023-05-07T09:13:15.841Z,4.85
2023-05-07T09:16:14.997Z,5.20
2023-05-07T09:19:05.772Z,5.70
2023-05-07T09:22:02.420Z,4.63
2023-05-07T09:24:55.207Z,4.60
2023-05-07T09:27:46.176Z,3.33
2023-05-07T09:30:34.765Z,3.55
2023-05-07T09:33:30.783Z,4.28
2023-05-07T09:36:20.295Z,3.63
2023-05-07T09:39:07.676Z,6.00
2023-05-07T09:41:55.734Z,3.55
2023-05-07T09:44:51.911Z,2.97
2023-05-07T09:47:46.985Z,3.40
2023-05-07T09:50:44.270Z,4.20
2023-05-07T09:53:33.165Z,2.83
2023-05-07T09:56:24.185Z,4.15
2023-05-07T09:59:15.108Z,3.15
2023-05-07T10:02:05.096Z,4.25
2023-05-07T10:04:57.519Z,2.38
2023-05-07T10:07:52.691Z,4.45
2023-05-07T10:10:43.350Z,4.22
2023-05-07T10:13:35.905Z,2.47
2023-05-07T10:16:23.846Z,4.38
2023-05-07T10:19:12.079Z,4.80
2023-05-07T10:22:06.903Z,7.55
2023-05-07T10:25:05.726Z,3.58
2023-05-07T10:27:57.938Z,3.15
2023-05-07T10:30:58.175Z,3.08
2023-05-07T10:33:50.381Z,6.03
2023-05-07T10:36:40.644Z,4.40
2023-05-07T10:39:29.829Z,4.55
2023-05-07T10:42:19.668Z,2.85
2023-05-07T10:45:17.926Z,3.42
2023-05-07T10:51:23.410Z,6.47
2023-05-07T10:54:25.979Z,3.67
2023-05-07T10:57:39.379Z,3.67
2023-05-07T11:00:47.930Z,4.68
2023-05-07T11:04:14.071Z,5.35
2023-05-07T11:07:23.719Z,4.95
2023-05-07T11:10:12.261Z,4.53
2023-05-07T11:13:11.250Z,5.57
2023-05-07T11:16:07.695Z,4.28
2023-05-07T11:19:00.814Z,5.53
2023-05-07T11:21:55.427Z,5.82
2023-05-07T11:24:57.368Z,3.45
2023-05-07T11:27:45.509Z,5.13
2023-05-07T11:30:34.578Z,2.65
2023-05-07T11:33:22.232Z,4.70
2023-05-07T11:36:12.129Z,4.03
2023-05-07T11:39:06.869Z,5.03
2023-05-07T11:41:53.892Z,3.67
2023-05-07T11:44:46.981Z,4.93
2023-05-07T11:47:51.235Z,5.15
2023-05-07T11:50:38.091Z,10.43
2023-05-07T11:53:27.815Z,4.57
2023-05-07T11:56:16.769Z,3.65
2023-05-07T11:59:04.099Z,3.30
2023-05-07T12:01:51.458Z,3.92
2023-05-07T12:04:40.968Z,3.50
2023-05-07T12:07:28.338Z,3.63
2023-05-07T12:10:15.910Z,5.35
2023-05-07T12:13:03.305Z,5.13
2023-05-07T12:15:53.456Z,4.40
2023-05-07T12:18:40.967Z,4.28
2023-05-07T12:21:29.559Z,3.53
2023-05-07T12:24:17.188Z,3.78
2023-05-07T12:27:04.968Z,5.18
2023-05-07T12:29:53.108Z,4.75
2023-05-07T12:32:40.351Z,4.38
2023-05-07T12:35:30.778Z,3.65
2023-05-07T12:38:20.613Z,6.25
2023-05-07T12:41:09.327Z,4.53
2023-05-07T12:43:59.757Z,3.78
2023-05-07T12:46:48.854Z,3.65
2023-05-07T12:49:39.874Z,3.90
2023-05-07T12:52:27.446Z,5.00
2023-05-07T12:55:18.031Z,4.03
2023-05-07T12:58:04.886Z,4.63
2023-05-07T13:00:52.939Z,5.15
2023-05-07T13:03:40.913Z,6.40
2023-05-07T13:06:28.563Z,4.65
2023-05-07T13:09:16.021Z,4.53
2023-05-07T13:12:05.046Z,4.20
2023-05-07T13:14:52.085Z,2.55
2023-05-07T13:17:39.641Z,5.45
2023-05-07T13:20:26.444Z,10.00
2023-05-07T13:23:13.684Z,4.07
2023-05-07T13:26:04.143Z,3.13
2023-05-07T13:28:55.634Z,3.95
2023-05-07T13:31:45.263Z,3.83
2023-05-07T13:34:32.730Z,5.15
2023-05-07T13:37:21.488Z,2.33
2023-05-07T13:40:10.684Z,6.38
2023-05-07T13:43:00.803Z,4.57
2023-05-07T13:45:49.443Z,3.83
2023-05-07T13:48:36.398Z,3.40
2023-05-07T13:51:23.834Z,5.20
2023-05-07T13:54:11.091Z,11.18
2023-05-07T13:56:58.242Z,3.47
2023-05-07T13:59:45.234Z,3.65
2023-05-07T14:02:34.025Z,4.47
2023-05-07T14:05:22.924Z,2.50
2023-05-07T14:08:10.483Z,2.85
2023-05-07T14:10:57.863Z,3.85
2023-05-07T14:13:45.166Z,2.47
2023-05-07T14:16:32.481Z,4.22
2023-05-07T14:19:21.497Z,4.90
2023-05-07T14:22:08.626Z,6.72
2023-05-07T14:25:05.796Z,5.03
2023-05-07T14:28:02.168Z,4.18
2023-05-07T14:30:49.638Z,4.38
2023-05-07T14:33:36.826Z,3.30
2023-05-07T14:36:27.177Z,3.75
2023-05-07T14:39:14.970Z,3.40
2023-05-07T14:42:02.199Z,8.23
2023-05-07T14:44:49.574Z,5.28
2023-05-07T14:47:37.611Z,4.65
2023-05-07T14:50:24.745Z,4.30
2023-05-07T14:53:13.266Z,2.60
2023-05-07T14:56:01.402Z,4.60
2023-05-07T14:58:50.147Z,4.05
2023-05-07T15:01:37.706Z,4.68
2023-05-07T15:04:26.314Z,5.57
2023-05-07T15:07:16.197Z,7.45
2023-05-07T15:10:04.769Z,8.27
2023-05-07T15:12:51.745Z,3.90
2023-05-07T15:15:38.867Z,8.70
2023-05-07T15:18:27.227Z,4.95
2023-05-07T15:21:14.581Z,3.95
2023-05-07T15:24:02.141Z,6.43
2023-05-07T15:26:51.052Z,6.47
2023-05-07T15:29:38.453Z,3.75
2023-05-07T15:32:26.536Z,6.43
2023-05-07T15:35:14.278Z,6.18
2023-05-07T15:38:02.448Z,3.85
2023-05-07T15:40:49.767Z,5.30
2023-05-07T15:43:47.862Z,7.88
2023-05-07T15:46:35.022Z,4.93
2023-05-07T15:49:23.130Z,6.15
2023-05-07T15:52:12.026Z,3.83
2023-05-07T15:55:01.422Z,5.65
2023-05-07T15:57:48.921Z,7.40
2023-05-07T16:00:37.592Z,5.65
2023-05-07T16:03:25.296Z,5.78
2023-05-07T16:06:13.409Z,3.95
2023-05-07T16:09:00.914Z,4.40
2023-05-07T16:11:48.214Z,3.45
2023-05-07T16:14:35.369Z,4.68
2023-05-07T16:17:24.094Z,5.15
2023-05-07T16:20:13.367Z,4.53
2023-05-07T16:23:00.553Z,2.70
2023-05-07T16:25:47.948Z,4.00
2023-05-07T16:28:35.338Z,4.32
2023-05-07T16:31:22.628Z,2.78
2023-05-07T16:34:11.524Z,3.35
2023-05-07T16:36:58.627Z,4.93
2023-05-07T16:39:45.987Z,3.03
2023-05-07T16:42:33.516Z,3.17
2023-05-07T16:45:20.846Z,4.47
2023-05-07T16:48:08.879Z,3.15
2023-05-07T16:50:59.477Z,3.28
2023-05-07T16:53:46.880Z,5.30
2023-05-07T16:56:34.142Z,4.47
2023-05-07T16:59:21.522Z,3.45
2023-05-07T17:02:09.120Z,2.53
2023-05-07T17:04:56.281Z,3.05
2023-05-07T17:07:44.781Z,5.10
2023-05-07T17:10:31.726Z,3.22
2023-05-07T17:13:19.234Z,4.00
2023-05-07T17:16:06.915Z,2.95
2023-05-07T17:18:54.068Z,3.88
2023-05-07T17:21:41.427Z,5.05
2023-05-07T17:24:30.142Z,3.13
2023-05-07T17:27:17.436Z,3.72
2023-05-07T17:30:04.909Z,4.35
2023-05-07T17:32:52.163Z,3.47
2023-05-07T17:35:39.122Z,3.42
2023-05-07T17:38:26.152Z,5.25
2023-05-07T17:41:14.810Z,4.35
2023-05-07T17:44:02.037Z,5.18
2023-05-07T17:46:53.560Z,5.50
2023-05-07T17:49:44.436Z,3.83
2023-05-07T17:52:34.179Z,4.28
2023-05-07T17:55:26.712Z,3.38
2023-05-07T17:58:15.098Z,2.63
2023-05-07T18:01:02.153Z,4.65
2023-05-07T18:03:49.335Z,3.50
2023-05-07T18:06:36.997Z,8.52
2023-05-07T18:09:24.055Z,3.90
2023-05-07T18:12:11.658Z,4.63
2023-05-07T18:15:00.116Z,3.00
2023-05-07T18:17:47.265Z,4.50
2023-05-07T18:20:34.520Z,4.22
2023-05-07T18:23:21.612Z,4.43
2023-05-07T18:26:08.912Z,3.75
2023-05-07T18:28:56.127Z,3.63
2023-05-07T18:31:44.919Z,2.75
2023-05-07T18:34:31.735Z,3.67
2023-05-07T18:37:19.168Z,4.05
2023-05-07T18:40:07.072Z,4.97
2023-05-07T18:42:54.529Z,6.60
2023-05-07T18:45:42.600Z,4.63
2023-05-07T18:48:31.362Z,3.33
2023-05-07T18:51:18.613Z,5.75
2023-05-07T18:54:06.393Z,3.83
2023-05-07T18:56:53.455Z,3.58
2023-05-07T18:59:40.812Z,5.22
2023-05-07T19:02:27.764Z,3.75
2023-05-07T19:05:18.530Z,4.75
2023-05-07T19:08:06.566Z,4.53
2023-05-07T19:10:56.118Z,5.90
2023-05-07T19:13:44.302Z,3.20
2023-05-07T19:16:31.937Z,6.18
2023-05-07T19:19:19.675Z,3.88
2023-05-07T19:22:08.255Z,4.60
2023-05-07T19:24:55.310Z,4.18
2023-05-07T19:27:42.536Z,7.00
2023-05-07T19:30:29.556Z,5.28
2023-05-07T19:33:16.938Z,3.78
2023-05-07T19:36:04.270Z,6.70
2023-05-07T19:38:53.919Z,4.75
2023-05-07T19:41:41.972Z,3.97
2023-05-07T19:44:29.032Z,4.85
2023-05-07T19:47:17.636Z,4.72
2023-05-07T19:50:05.192Z,5.03
2023-05-07T19:52:52.514Z,5.63
2023-05-07T19:55:40.880Z,11.35
2023-05-07T19:58:27.773Z,9.82
2023-05-07T20:01:14.909Z,7.72
2023-05-07T20:04:01.925Z,6.20
2023-05-07T20:06:49.258Z,6.85
2023-05-07T20:09:36.536Z,7.45
2023-05-07T20:12:24.732Z,8.80
2023-05-07T20:15:12.482Z,8.48
2023-05-07T20:17:59.541Z,11.18
2023-05-07T20:20:46.846Z,8.38
2023-05-07T20:23:33.739Z,8.02
2023-05-07T20:26:21.625Z,9.48
2023-05-07T20:29:10.295Z,6.75
2023-05-07T20:32:06.898Z,8.85
2023-05-07T20:34:54.366Z,7.03
2023-05-07T20:37:41.980Z,7.43
2023-05-07T20:40:29.140Z,8.85
2023-05-07T20:43:16.369Z,6.95
2023-05-07T20:46:05.947Z,8.30
2023-05-07T20:48:53.110Z,7.65
2023-05-07T20:51:40.442Z,8.13
2023-05-07T20:54:28.301Z,9.43
2023-05-07T20:57:15.699Z,8.15
2023-05-07T21:00:04.045Z,7.13
2023-05-07T21:02:53.371Z,7.30
2023-05-07T21:05:40.519Z,6.65
2023-05-07T21:08:27.986Z,7.60
2023-05-07T21:11:15.390Z,7.57
2023-05-07T21:14:02.453Z,7.60
2023-05-07T21:16:49.820Z,10.25
2023-05-07T21:19:38.748Z,11.48
2023-05-07T21:22:26.029Z,9.48
2023-05-07T21:25:13.598Z,8.70
2023-05-07T21:28:01.291Z,8.85
2023-05-07T21:30:48.201Z,11.10
2023-05-07T21:33:35.525Z,11.93
2023-05-07T21:36:23.667Z,8.88
2023-05-07T21:39:11.042Z,11.50
2023-05-07T21:41:58.618Z,9.85
2023-05-07T21:44:45.600Z,10.07
2023-05-07T21:47:32.546Z,9.68
2023-05-07T21:50:20.609Z,13.50
2023-05-07T21:53:08.963Z,8.90
2023-05-07T21:55:56.070Z,10.50
2023-05-07T21:58:43.391Z,12.15
2023-05-07T22:01:30.625Z,11.77
2023-05-07T22:04:17.777Z,12.00
2023-05-07T22:07:04.883Z,12.65
2023-05-07T22:09:53.504Z,11.73
2023-05-07T22:12:40.791Z,11.23
2023-05-07T22:15:27.835Z,12.85
2023-05-07T22:18:14.941Z,11.15
2023-05-07T22:21:02.289Z,9.27
2023-05-07T22:23:49.677Z,10.38
2023-05-07T22:26:38.245Z,11.63
2023-05-07T22:29:25.908Z,12.70
2023-05-07T22:32:13.064Z,12.80
2023-05-07T22:35:00.144Z,11.20
2023-05-07T22:37:47.197Z,10.50
2023-05-07T22:40:34.361Z,11.90
2023-05-07T22:43:23.031Z,11.40
2023-05-07T22:46:10.353Z,15.32
2023-05-07T22:48:57.703Z,10.38
2023-05-07T22:51:44.533Z,12.52
2023-05-07T22:54:32.608Z,11.50
2023-05-07T22:57:19.901Z,16.60
2023-05-07T23:00:09.917Z,9.95
2023-05-07T23:02:57.048Z,15.00
2023-05-07T23:05:44.513Z,13.60
2023-05-07T23:08:31.751Z,13.13
2023-05-07T23:11:18.621Z,11.68
2023-05-07T23:14:05.650Z,11.30
2023-05-07T23:16:54.498Z,15.07
2023-05-07T23:19:41.940Z,13.63
2023-05-07T23:22:29.111Z,13.65
2023-05-07T23:25:16.988Z,14.38
2023-05-07T23:28:04.171Z,14.15
2023-05-07T23:30:51.293Z,11.90
2023-05-07T23:33:40.316Z,10.85
2023-05-07T23:36:28.640Z,11.30
2023-05-07T23:39:15.964Z,12.20
2023-05-07T23:42:04.085Z,15.10
2023-05-07T23:44:52.027Z,14.25
2023-05-07T23:47:39.010Z,13.00
2023-05-07T23:50:27.615Z,14.20
2023-05-07T23:53:14.470Z,13.80
2023-05-07T23:56:01.590Z,13.45
2023-05-07T23:58:49.048Z,13.63
